sensor_id;sensor_type;location;lat;lon;timestamp;pressure;altitude;pressure_sealevel;temperature;humidity
43814;BME280;29669;55.706;37.656;2023-05-23T00:02:14;100329.91;;;14.22;63.99
43814;BME280;29669;55.706;37.656;2023-05-23T00:04:43;100325.53;;;14.14;64.08
43814;BME280;29669;55.706;37.656;2023-05-23T00:07:10;100329.31;;;14.12;64.26
43814;BME280;29669;55.706;37.656;2023-05-23T00:09:38;100323.78;;;14.07;64.41
43814;BME280;29669;55.706;37.656;2023-05-23T00:12:06;100328.53;;;14.03;64.60
43814;BME280;29669;55.706;37.656;2023-05-23T00:14:34;100339.16;;;14.02;64.79
43814;BME280;29669;55.706;37.656;2023-05-23T00:17:02;100340.31;;;13.99;65.01
43814;BME280;29669;55.706;37.656;2023-05-23T00:19:31;100344.72;;;13.99;65.19
43814;BME280;29669;55.706;37.656;2023-05-23T00:22:03;100344.25;;;13.95;64.90
43814;BME280;29669;55.706;37.656;2023-05-23T00:24:31;100334.34;;;13.91;65.09
43814;BME280;29669;55.706;37.656;2023-05-23T00:26:58;100338.72;;;13.90;65.20
43814;BME280;29669;55.706;37.656;2023-05-23T00:29:28;100334.19;;;13.84;65.20
43814;BME280;29669;55.706;37.656;2023-05-23T00:31:55;100341.84;;;13.86;65.29
43814;BME280;29669;55.706;37.656;2023-05-23T00:34:23;100331.75;;;13.83;65.39
43814;BME280;29669;55.706;37.656;2023-05-23T00:36:51;100329.47;;;13.80;65.25
43814;BME280;29669;55.706;37.656;2023-05-23T00:39:20;100332.25;;;13.78;65.21
43814;BME280;29669;55.706;37.656;2023-05-23T00:41:49;100331.59;;;13.76;65.61
43814;BME280;29669;55.706;37.656;2023-05-23T00:44:20;100335.22;;;13.75;65.62
43814;BME280;29669;55.706;37.656;2023-05-23T00:46:54;100329.00;;;13.76;65.86
43814;BME280;29669;55.706;37.656;2023-05-23T00:49:24;100330.47;;;13.79;65.87
43814;BME280;29669;55.706;37.656;2023-05-23T00:51:54;100332.88;;;13.80;65.84
43814;BME280;29669;55.706;37.656;2023-05-23T00:54:25;100319.38;;;13.77;65.79
43814;BME280;29669;55.706;37.656;2023-05-23T00:56:55;100325.56;;;13.76;65.80
43814;BME280;29669;55.706;37.656;2023-05-23T00:59:24;100326.84;;;13.80;65.80
43814;BME280;29669;55.706;37.656;2023-05-23T01:01:55;100326.34;;;13.84;65.75
43814;BME280;29669;55.706;37.656;2023-05-23T01:04:24;100325.34;;;13.85;65.54
43814;BME280;29669;55.706;37.656;2023-05-23T01:06:54;100321.78;;;13.86;65.43
43814;BME280;29669;55.706;37.656;2023-05-23T01:09:24;100326.00;;;13.87;65.50
43814;BME280;29669;55.706;37.656;2023-05-23T01:20:25;100308.47;;;14.04;65.10
43814;BME280;29669;55.706;37.656;2023-05-23T01:28:19;100313.13;;;14.16;64.78
43814;BME280;29669;55.706;37.656;2023-05-23T01:30:50;100317.66;;;14.23;64.75
43814;BME280;29669;55.706;37.656;2023-05-23T01:33:19;100321.41;;;14.28;64.67
43814;BME280;29669;55.706;37.656;2023-05-23T01:35:49;100327.94;;;14.32;64.54
43814;BME280;29669;55.706;37.656;2023-05-23T01:38:17;100321.69;;;14.33;64.48
43814;BME280;29669;55.706;37.656;2023-05-23T01:40:45;100317.13;;;14.35;64.36
43814;BME280;29669;55.706;37.656;2023-05-23T01:43:13;100308.31;;;14.36;64.30
43814;BME280;29669;55.706;37.656;2023-05-23T01:45:42;100314.19;;;14.38;64.22
43814;BME280;29669;55.706;37.656;2023-05-23T01:48:11;100300.41;;;14.44;64.37
43814;BME280;29669;55.706;37.656;2023-05-23T01:50:41;100308.09;;;14.46;64.24
43814;BME280;29669;55.706;37.656;2023-05-23T01:53:13;100315.56;;;14.49;64.17
43814;BME280;29669;55.706;37.656;2023-05-23T01:55:41;100309.19;;;14.51;64.08
43814;BME280;29669;55.706;37.656;2023-05-23T01:58:10;100305.25;;;14.55;63.85
43814;BME280;29669;55.706;37.656;2023-05-23T02:00:39;100305.97;;;14.64;63.74
43814;BME280;29669;55.706;37.656;2023-05-23T02:03:07;100311.94;;;14.72;63.68
43814;BME280;29669;55.706;37.656;2023-05-23T02:05:35;100299.91;;;14.86;63.69
43814;BME280;29669;55.706;37.656;2023-05-23T02:08:03;100304.53;;;14.98;63.46
43814;BME280;29669;55.706;37.656;2023-05-23T02:10:30;100302.31;;;15.10;63.07
43814;BME280;29669;55.706;37.656;2023-05-23T02:13:00;100317.81;;;15.26;62.83
43814;BME280;29669;55.706;37.656;2023-05-23T02:15:29;100313.78;;;15.38;62.65
43814;BME280;29669;55.706;37.656;2023-05-23T02:17:58;100302.88;;;15.49;62.27
43814;BME280;29669;55.706;37.656;2023-05-23T02:20:26;100297.72;;;15.56;61.99
43814;BME280;29669;55.706;37.656;2023-05-23T02:22:53;100294.75;;;15.59;61.70
43814;BME280;29669;55.706;37.656;2023-05-23T02:25:21;100293.94;;;15.58;61.45
43814;BME280;29669;55.706;37.656;2023-05-23T02:27:49;100288.25;;;15.55;61.60
43814;BME280;29669;55.706;37.656;2023-05-23T02:30:17;100290.63;;;15.50;61.69
43814;BME280;29669;55.706;37.656;2023-05-23T02:32:45;100302.88;;;15.49;61.57
43814;BME280;29669;55.706;37.656;2023-05-23T02:35:14;100294.41;;;15.47;61.77
43814;BME280;29669;55.706;37.656;2023-05-23T02:37:42;100294.41;;;15.47;61.57
43814;BME280;29669;55.706;37.656;2023-05-23T02:40:10;100302.06;;;15.49;61.50
43814;BME280;29669;55.706;37.656;2023-05-23T02:42:40;100294.66;;;15.52;61.30
43814;BME280;29669;55.706;37.656;2023-05-23T02:45:09;100292.47;;;15.56;61.38
43814;BME280;29669;55.706;37.656;2023-05-23T02:47:36;100299.34;;;15.57;61.16
43814;BME280;29669;55.706;37.656;2023-05-23T02:50:05;100306.63;;;15.61;60.87
43814;BME280;29669;55.706;37.656;2023-05-23T02:52:33;100306.09;;;15.66;60.78
43814;BME280;29669;55.706;37.656;2023-05-23T02:55:01;100308.34;;;15.69;60.50
43814;BME280;29669;55.706;37.656;2023-05-23T02:57:35;100309.97;;;15.70;60.48
43814;BME280;29669;55.706;37.656;2023-05-23T03:00:03;100302.94;;;15.70;60.37
43814;BME280;29669;55.706;37.656;2023-05-23T03:02:32;100315.22;;;15.70;60.23
43814;BME280;29669;55.706;37.656;2023-05-23T03:05:00;100315.03;;;15.71;60.11
43814;BME280;29669;55.706;37.656;2023-05-23T03:07:30;100315.31;;;15.76;59.81
43814;BME280;29669;55.706;37.656;2023-05-23T03:10:00;100316.00;;;15.85;59.69
43814;BME280;29669;55.706;37.656;2023-05-23T03:12:30;100316.78;;;16.00;59.21
43814;BME280;29669;55.706;37.656;2023-05-23T03:14:58;100307.09;;;16.15;58.79
43814;BME280;29669;55.706;37.656;2023-05-23T03:17:27;100303.88;;;16.34;58.76
43814;BME280;29669;55.706;37.656;2023-05-23T03:19:56;100308.94;;;16.57;58.11
43814;BME280;29669;55.706;37.656;2023-05-23T03:22:24;100304.88;;;16.75;57.70
43814;BME280;29669;55.706;37.656;2023-05-23T03:24:52;100299.41;;;16.98;57.16
43814;BME280;29669;55.706;37.656;2023-05-23T03:27:20;100302.38;;;17.23;56.62
43814;BME280;29669;55.706;37.656;2023-05-23T03:29:48;100294.03;;;17.47;56.05
43814;BME280;29669;55.706;37.656;2023-05-23T03:32:16;100297.63;;;17.67;55.45
43814;BME280;29669;55.706;37.656;2023-05-23T03:34:48;100290.41;;;17.88;54.97
43814;BME280;29669;55.706;37.656;2023-05-23T03:37:15;100298.56;;;18.07;54.52
43814;BME280;29669;55.706;37.656;2023-05-23T03:39:44;100292.13;;;18.22;54.12
43814;BME280;29669;55.706;37.656;2023-05-23T03:42:11;100284.47;;;18.34;53.52
43814;BME280;29669;55.706;37.656;2023-05-23T03:44:40;100291.97;;;18.43;53.46
43814;BME280;29669;55.706;37.656;2023-05-23T03:47:08;100283.09;;;18.57;53.13
43814;BME280;29669;55.706;37.656;2023-05-23T03:49:39;100289.19;;;18.71;52.55
43814;BME280;29669;55.706;37.656;2023-05-23T03:52:07;100284.72;;;18.78;52.30
43814;BME280;29669;55.706;37.656;2023-05-23T03:54:35;100278.03;;;18.82;52.12
43814;BME280;29669;55.706;37.656;2023-05-23T03:57:04;100286.53;;;18.91;51.67
43814;BME280;29669;55.706;37.656;2023-05-23T03:59:33;100291.97;;;19.02;51.37
43814;BME280;29669;55.706;37.656;2023-05-23T04:02:04;100288.31;;;19.16;51.13
43814;BME280;29669;55.706;37.656;2023-05-23T04:04:32;100287.72;;;19.21;50.56
43814;BME280;29669;55.706;37.656;2023-05-23T04:07:01;100292.78;;;19.16;50.39
43814;BME280;29669;55.706;37.656;2023-05-23T04:09:29;100290.34;;;19.08;50.20
43814;BME280;29669;55.706;37.656;2023-05-23T04:11:59;100285.50;;;19.05;50.31
43814;BME280;29669;55.706;37.656;2023-05-23T04:14:29;100294.22;;;18.99;50.13
43814;BME280;29669;55.706;37.656;2023-05-23T04:16:58;100291.41;;;18.94;50.10
43814;BME280;29669;55.706;37.656;2023-05-23T04:19:28;100287.34;;;18.91;50.31
43814;BME280;29669;55.706;37.656;2023-05-23T04:21:57;100283.47;;;19.00;49.97
43814;BME280;29669;55.706;37.656;2023-05-23T04:24:25;100288.94;;;19.18;49.97
43814;BME280;29669;55.706;37.656;2023-05-23T04:26:56;100298.63;;;19.37;49.33
43814;BME280;29669;55.706;37.656;2023-05-23T04:29:29;100285.81;;;19.47;49.19
43814;BME280;29669;55.706;37.656;2023-05-23T04:32:02;100282.53;;;19.65;48.93
43814;BME280;29669;55.706;37.656;2023-05-23T04:34:34;100276.22;;;19.73;48.68
43814;BME280;29669;55.706;37.656;2023-05-23T04:37:03;100290.56;;;19.83;48.26
43814;BME280;29669;55.706;37.656;2023-05-23T04:39:32;100288.47;;;19.98;48.17
43814;BME280;29669;55.706;37.656;2023-05-23T04:42:20;100282.88;;;20.19;47.67
43814;BME280;29669;55.706;37.656;2023-05-23T04:45:12;100278.72;;;20.36;47.59
43814;BME280;29669;55.706;37.656;2023-05-23T04:47:52;100285.16;;;20.47;47.18
43814;BME280;29669;55.706;37.656;2023-05-23T04:50:49;100274.53;;;20.53;47.27
43814;BME280;29669;55.706;37.656;2023-05-23T04:53:19;100278.69;;;20.68;46.68
43814;BME280;29669;55.706;37.656;2023-05-23T04:55:47;100283.47;;;20.77;46.35
43814;BME280;29669;55.706;37.656;2023-05-23T04:58:17;100277.94;;;20.85;46.27
43814;BME280;29669;55.706;37.656;2023-05-23T05:00:46;100280.69;;;20.97;46.10
43814;BME280;29669;55.706;37.656;2023-05-23T05:03:16;100289.97;;;21.06;45.89
43814;BME280;29669;55.706;37.656;2023-05-23T05:05:46;100293.19;;;21.08;45.50
43814;BME280;29669;55.706;37.656;2023-05-23T05:08:15;100304.63;;;20.95;45.38
43814;BME280;29669;55.706;37.656;2023-05-23T05:10:47;100318.63;;;20.71;45.63
43814;BME280;29669;55.706;37.656;2023-05-23T05:13:17;100327.69;;;20.57;45.96
43814;BME280;29669;55.706;37.656;2023-05-23T05:15:48;100319.34;;;20.60;46.13
43814;BME280;29669;55.706;37.656;2023-05-23T05:18:16;100318.16;;;20.81;46.00
43814;BME280;29669;55.706;37.656;2023-05-23T05:20:45;100313.81;;;20.93;45.42
43814;BME280;29669;55.706;37.656;2023-05-23T05:23:14;100318.50;;;20.91;45.39
43814;BME280;29669;55.706;37.656;2023-05-23T05:25:42;100319.13;;;20.86;45.35
43814;BME280;29669;55.706;37.656;2023-05-23T05:28:11;100322.56;;;20.87;45.36
43814;BME280;29669;55.706;37.656;2023-05-23T05:30:45;100310.56;;;20.91;45.34
43814;BME280;29669;55.706;37.656;2023-05-23T05:33:13;100303.88;;;20.88;45.14
43814;BME280;29669;55.706;37.656;2023-05-23T05:35:42;100318.22;;;20.74;45.52
43814;BME280;29669;55.706;37.656;2023-05-23T05:38:10;100310.94;;;20.70;45.75
43814;BME280;29669;55.706;37.656;2023-05-23T05:40:38;100306.84;;;20.74;45.75
43814;BME280;29669;55.706;37.656;2023-05-23T05:43:07;100304.09;;;20.87;45.42
43814;BME280;29669;55.706;37.656;2023-05-23T05:45:37;100298.88;;;21.05;45.13
43814;BME280;29669;55.706;37.656;2023-05-23T05:48:05;100305.03;;;21.23;45.06
43814;BME280;29669;55.706;37.656;2023-05-23T05:50:34;100300.09;;;21.27;44.83
43814;BME280;29669;55.706;37.656;2023-05-23T05:53:02;100293.63;;;21.41;44.89
43814;BME280;29669;55.706;37.656;2023-05-23T05:55:31;100291.13;;;21.64;44.43
43814;BME280;29669;55.706;37.656;2023-05-23T05:57:59;100298.19;;;21.70;44.24
43814;BME280;29669;55.706;37.656;2023-05-23T06:00:33;100287.91;;;21.62;44.30
43814;BME280;29669;55.706;37.656;2023-05-23T06:03:09;100295.72;;;21.57;44.56
43814;BME280;29669;55.706;37.656;2023-05-23T06:05:43;100289.97;;;21.60;44.38
43814;BME280;29669;55.706;37.656;2023-05-23T06:08:13;100290.84;;;21.54;44.58
43814;BME280;29669;55.706;37.656;2023-05-23T06:10:42;100295.53;;;21.52;44.51
43814;BME280;29669;55.706;37.656;2023-05-23T06:13:10;100289.38;;;21.58;44.67
43814;BME280;29669;55.706;37.656;2023-05-23T06:15:43;100283.34;;;21.69;44.35
43814;BME280;29669;55.706;37.656;2023-05-23T06:18:15;100284.25;;;21.81;44.23
43814;BME280;29669;55.706;37.656;2023-05-23T06:20:44;100284.34;;;22.04;44.18
43814;BME280;29669;55.706;37.656;2023-05-23T06:23:15;100280.66;;;22.35;43.65
43814;BME280;29669;55.706;37.656;2023-05-23T06:25:44;100267.25;;;22.71;42.92
43814;BME280;29669;55.706;37.656;2023-05-23T06:28:12;100267.28;;;23.06;42.45
43814;BME280;29669;55.706;37.656;2023-05-23T06:30:40;100260.81;;;23.37;41.96
43814;BME280;29669;55.706;37.656;2023-05-23T06:33:09;100272.78;;;23.79;41.28
43814;BME280;29669;55.706;37.656;2023-05-23T06:35:39;100255.47;;;24.16;40.95
43814;BME280;29669;55.706;37.656;2023-05-23T06:38:07;100266.34;;;24.48;40.61
43814;BME280;29669;55.706;37.656;2023-05-23T06:40:35;100261.91;;;24.70;40.05
43814;BME280;29669;55.706;37.656;2023-05-23T06:43:03;100249.22;;;24.72;39.63
43814;BME280;29669;55.706;37.656;2023-05-23T06:45:47;100248.44;;;24.71;39.70
43814;BME280;29669;55.706;37.656;2023-05-23T06:48:18;100243.19;;;24.76;39.75
43814;BME280;29669;55.706;37.656;2023-05-23T06:50:48;100243.81;;;24.83;39.34
43814;BME280;29669;55.706;37.656;2023-05-23T06:53:17;100253.78;;;24.93;39.36
43814;BME280;29669;55.706;37.656;2023-05-23T06:55:48;100249.13;;;25.00;39.25
43814;BME280;29669;55.706;37.656;2023-05-23T06:58:21;100242.13;;;24.94;39.11
43814;BME280;29669;55.706;37.656;2023-05-23T07:00:52;100229.81;;;24.88;39.62
43814;BME280;29669;55.706;37.656;2023-05-23T07:03:29;100240.66;;;25.03;39.30
43814;BME280;29669;55.706;37.656;2023-05-23T07:06:01;100228.63;;;25.17;39.19
43814;BME280;29669;55.706;37.656;2023-05-23T07:08:30;100228.00;;;25.32;38.71
43814;BME280;29669;55.706;37.656;2023-05-23T07:11:00;100226.47;;;25.36;38.36
43814;BME280;29669;55.706;37.656;2023-05-23T07:13:32;100225.97;;;25.39;38.47
43814;BME280;29669;55.706;37.656;2023-05-23T07:16:00;100216.22;;;25.44;38.49
43814;BME280;29669;55.706;37.656;2023-05-23T07:18:28;100219.69;;;25.45;38.54
43814;BME280;29669;55.706;37.656;2023-05-23T07:20:57;100220.09;;;25.37;38.32
43814;BME280;29669;55.706;37.656;2023-05-23T07:23:26;100219.97;;;25.48;38.32
43814;BME280;29669;55.706;37.656;2023-05-23T07:25:54;100219.84;;;25.60;37.84
43814;BME280;29669;55.706;37.656;2023-05-23T07:28:41;100222.56;;;25.65;37.91
43814;BME280;29669;55.706;37.656;2023-05-23T07:31:09;100222.31;;;25.66;37.90
43814;BME280;29669;55.706;37.656;2023-05-23T07:33:39;100228.03;;;25.80;37.57
43814;BME280;29669;55.706;37.656;2023-05-23T07:36:10;100234.31;;;25.95;37.68
43814;BME280;29669;55.706;37.656;2023-05-23T07:38:38;100237.09;;;26.05;37.36
43814;BME280;29669;55.706;37.656;2023-05-23T07:41:05;100226.88;;;26.24;37.37
43814;BME280;29669;55.706;37.656;2023-05-23T07:43:39;100223.53;;;26.39;37.02
43814;BME280;29669;55.706;37.656;2023-05-23T07:46:08;100226.31;;;26.54;37.23
43814;BME280;29669;55.706;37.656;2023-05-23T07:48:37;100236.63;;;26.82;36.57
43814;BME280;29669;55.706;37.656;2023-05-23T07:51:05;100237.28;;;26.99;36.17
43814;BME280;29669;55.706;37.656;2023-05-23T07:53:34;100238.81;;;26.90;36.38
43814;BME280;29669;55.706;37.656;2023-05-23T07:56:09;100232.19;;;26.92;36.20
43814;BME280;29669;55.706;37.656;2023-05-23T07:58:40;100235.91;;;26.91;36.10
43814;BME280;29669;55.706;37.656;2023-05-23T08:01:08;100234.06;;;26.97;35.91
43814;BME280;29669;55.706;37.656;2023-05-23T08:03:55;100243.16;;;27.01;35.88
43814;BME280;29669;55.706;37.656;2023-05-23T08:06:43;100240.47;;;27.01;36.18
43814;BME280;29669;55.706;37.656;2023-05-23T08:09:51;100243.19;;;27.06;36.20
43814;BME280;29669;55.706;37.656;2023-05-23T08:12:20;100239.53;;;27.27;35.83
43814;BME280;29669;55.706;37.656;2023-05-23T08:14:57;100227.38;;;27.46;35.20
43814;BME280;29669;55.706;37.656;2023-05-23T08:17:32;100234.09;;;27.59;35.62
43814;BME280;29669;55.706;37.656;2023-05-23T08:20:01;100234.41;;;27.82;35.33
43814;BME280;29669;55.706;37.656;2023-05-23T08:22:32;100225.91;;;27.96;34.83
43814;BME280;29669;55.706;37.656;2023-05-23T08:25:00;100224.59;;;28.18;34.60
43814;BME280;29669;55.706;37.656;2023-05-23T08:27:32;100229.69;;;28.35;34.38
43814;BME280;29669;55.706;37.656;2023-05-23T08:30:06;100228.06;;;28.49;34.24
43814;BME280;29669;55.706;37.656;2023-05-23T08:32:36;100231.00;;;28.47;34.28
43814;BME280;29669;55.706;37.656;2023-05-23T08:35:05;100224.34;;;28.30;34.26
43814;BME280;29669;55.706;37.656;2023-05-23T08:42:41;100221.69;;;28.25;nan
43814;BME280;29669;55.706;37.656;2023-05-23T08:45:11;100225.94;;;28.21;nan
43814;BME280;29669;55.706;37.656;2023-05-23T08:47:42;100224.88;;;28.22;nan
43814;BME280;29669;55.706;37.656;2023-05-23T08:50:16;100221.69;;;28.20;nan
43814;BME280;29669;55.706;37.656;2023-05-23T08:55:24;100231.28;;;28.01;nan
43814;BME280;29669;55.706;37.656;2023-05-23T08:57:57;100218.72;;;27.96;nan
43814;BME280;29669;55.706;37.656;2023-05-23T09:00:50;100229.94;;;28.08;nan
43814;BME280;29669;55.706;37.656;2023-05-23T09:03:21;100218.47;;;28.13;nan
43814;BME280;29669;55.706;37.656;2023-05-23T09:06:06;100237.41;;;28.01;nan
43814;BME280;29669;55.706;37.656;2023-05-23T09:08:38;100231.75;;;27.92;nan
43814;BME280;29669;55.706;37.656;2023-05-23T09:11:07;100235.25;;;27.93;nan
43814;BME280;29669;55.706;37.656;2023-05-23T09:13:37;100243.50;;;27.86;nan
43814;BME280;29669;55.706;37.656;2023-05-23T09:16:09;100245.09;;;27.87;nan
43814;BME280;29669;55.706;37.656;2023-05-23T09:18:43;100244.88;;;28.09;nan
43814;BME280;29669;55.706;37.656;2023-05-23T09:21:14;100247.28;;;28.21;nan
43814;BME280;29669;55.706;37.656;2023-05-23T09:24:05;100257.44;;;28.24;nan
43814;BME280;29669;55.706;37.656;2023-05-23T09:26:34;100256.88;;;28.02;nan
43814;BME280;29669;55.706;37.656;2023-05-23T09:29:05;100262.63;;;27.63;nan
43814;BME280;29669;55.706;37.656;2023-05-23T09:31:35;100260.50;;;27.55;nan
43814;BME280;29669;55.706;37.656;2023-05-23T09:34:03;100263.72;;;27.57;nan
43814;BME280;29669;55.706;37.656;2023-05-23T09:36:32;100266.34;;;27.52;nan
43814;BME280;29669;55.706;37.656;2023-05-23T09:39:03;100266.88;;;27.54;nan
43814;BME280;29669;55.706;37.656;2023-05-23T09:41:32;100269.22;;;27.36;nan
43814;BME280;29669;55.706;37.656;2023-05-23T09:44:07;100258.94;;;27.13;nan
43814;BME280;29669;55.706;37.656;2023-05-23T09:46:36;100265.44;;;26.85;nan
43814;BME280;29669;55.706;37.656;2023-05-23T09:49:15;100264.53;;;26.38;nan
43814;BME280;29669;55.706;37.656;2023-05-23T09:51:56;100262.84;;;26.27;nan
43814;BME280;29669;55.706;37.656;2023-05-23T09:54:24;100269.88;;;26.11;nan
43814;BME280;29669;55.706;37.656;2023-05-23T09:56:52;100267.75;;;25.86;nan
43814;BME280;29669;55.706;37.656;2023-05-23T09:59:24;100259.44;;;25.56;nan
43814;BME280;29669;55.706;37.656;2023-05-23T10:01:56;100266.41;;;25.41;nan
43814;BME280;29669;55.706;37.656;2023-05-23T10:04:24;100271.09;;;25.34;nan
43814;BME280;29669;55.706;37.656;2023-05-23T10:07:00;100270.28;;;25.33;nan
43814;BME280;29669;55.706;37.656;2023-05-23T10:09:34;100262.81;;;25.52;nan
43814;BME280;29669;55.706;37.656;2023-05-23T10:15:01;100271.53;;;25.69;nan
43814;BME280;29669;55.706;37.656;2023-05-23T10:18:15;100277.59;;;25.64;nan
43814;BME280;29669;55.706;37.656;2023-05-23T10:20:48;100267.16;;;25.58;nan
43814;BME280;29669;55.706;37.656;2023-05-23T10:23:17;100279.44;;;25.42;nan
43814;BME280;29669;55.706;37.656;2023-05-23T10:25:46;100269.38;;;25.44;nan
43814;BME280;29669;55.706;37.656;2023-05-23T10:28:14;100269.25;;;25.56;nan
43814;BME280;29669;55.706;37.656;2023-05-23T10:30:43;100273.19;;;25.53;nan
43814;BME280;29669;55.706;37.656;2023-05-23T10:33:13;100273.56;;;25.40;nan
43814;BME280;29669;55.706;37.656;2023-05-23T10:35:56;100276.56;;;25.27;nan
43814;BME280;29669;55.706;37.656;2023-05-23T10:38:57;100281.25;;;25.20;nan
43814;BME280;29669;55.706;37.656;2023-05-23T10:41:50;100285.19;;;25.17;nan
43814;BME280;29669;55.706;37.656;2023-05-23T10:44:27;100286.13;;;25.06;nan
43814;BME280;29669;55.706;37.656;2023-05-23T10:47:00;100281.75;;;24.79;nan
43814;BME280;29669;55.706;37.656;2023-05-23T10:49:40;100278.41;;;24.39;nan
43814;BME280;29669;55.706;37.656;2023-05-23T10:52:12;100279.66;;;23.91;nan
43814;BME280;29669;55.706;37.656;2023-05-23T10:54:50;100281.22;;;23.64;nan
43814;BME280;29669;55.706;37.656;2023-05-23T10:57:20;100279.69;;;23.40;nan
43814;BME280;29669;55.706;37.656;2023-05-23T10:59:49;100284.88;;;23.23;nan
43814;BME280;29669;55.706;37.656;2023-05-23T11:02:25;100287.19;;;23.08;nan
43814;BME280;29669;55.706;37.656;2023-05-23T11:05:20;100276.94;;;22.89;nan
43814;BME280;29669;55.706;37.656;2023-05-23T11:08:13;100287.06;;;22.69;nan
43814;BME280;29669;55.706;37.656;2023-05-23T11:10:51;100282.97;;;22.43;nan
43814;BME280;29669;55.706;37.656;2023-05-23T11:13:20;100283.13;;;22.18;nan
43814;BME280;29669;55.706;37.656;2023-05-23T11:15:49;100281.94;;;22.03;nan
43814;BME280;29669;55.706;37.656;2023-05-23T11:18:22;100273.97;;;21.91;nan
43814;BME280;29669;55.706;37.656;2023-05-23T11:20:53;100274.03;;;21.85;nan
43814;BME280;29669;55.706;37.656;2023-05-23T11:23:22;100275.72;;;21.79;nan
43814;BME280;29669;55.706;37.656;2023-05-23T11:25:51;100278.56;;;21.78;nan
43814;BME280;29669;55.706;37.656;2023-05-23T11:28:20;100288.63;;;21.69;nan
43814;BME280;29669;55.706;37.656;2023-05-23T11:30:48;100289.97;;;21.60;nan
43814;BME280;29669;55.706;37.656;2023-05-23T11:33:17;100289.47;;;21.51;nan
43814;BME280;29669;55.706;37.656;2023-05-23T11:35:47;100288.34;;;21.41;nan
43814;BME280;29669;55.706;37.656;2023-05-23T11:38:15;100283.06;;;21.41;nan
43814;BME280;29669;55.706;37.656;2023-05-23T11:40:47;100288.66;;;21.51;nan
43814;BME280;29669;55.706;37.656;2023-05-23T11:43:16;100278.75;;;21.65;nan
43814;BME280;29669;55.706;37.656;2023-05-23T11:45:45;100289.97;;;21.78;nan
43814;BME280;29669;55.706;37.656;2023-05-23T11:48:15;100289.50;;;21.99;nan
43814;BME280;29669;55.706;37.656;2023-05-23T11:50:49;100291.41;;;22.22;nan
43814;BME280;29669;55.706;37.656;2023-05-23T11:53:19;100275.28;;;22.53;nan
43814;BME280;29669;55.706;37.656;2023-05-23T11:56:01;100277.19;;;22.99;nan
43814;BME280;29669;55.706;37.656;2023-05-23T11:58:34;100270.00;;;23.46;nan
43814;BME280;29669;55.706;37.656;2023-05-23T12:01:08;100270.22;;;23.84;nan
43814;BME280;29669;55.706;37.656;2023-05-23T12:03:47;100261.56;;;23.88;nan
43814;BME280;29669;55.706;37.656;2023-05-23T12:06:17;100269.69;;;23.98;nan
43814;BME280;29669;55.706;37.656;2023-05-23T12:08:48;100272.34;;;23.98;nan
43814;BME280;29669;55.706;37.656;2023-05-23T12:11:16;100261.56;;;23.88;nan
43814;BME280;29669;55.706;37.656;2023-05-23T12:13:45;100260.47;;;24.01;nan
43814;BME280;29669;55.706;37.656;2023-05-23T12:16:13;100256.34;;;24.21;nan
43814;BME280;29669;55.706;37.656;2023-05-23T12:18:44;100248.66;;;24.37;nan
43814;BME280;29669;55.706;37.656;2023-05-23T12:21:12;100242.13;;;24.44;nan
43814;BME280;29669;55.706;37.656;2023-05-23T12:23:40;100243.50;;;24.47;nan
43814;BME280;29669;55.706;37.656;2023-05-23T12:26:08;100243.97;;;24.44;nan
43814;BME280;29669;55.706;37.656;2023-05-23T12:28:41;100244.47;;;24.41;nan
43814;BME280;29669;55.706;37.656;2023-05-23T12:31:20;100233.94;;;24.46;nan
43814;BME280;29669;55.706;37.656;2023-05-23T12:33:51;100236.75;;;24.56;nan
43814;BME280;29669;55.706;37.656;2023-05-23T12:36:23;100223.69;;;24.87;nan
43814;BME280;29669;55.706;37.656;2023-05-23T12:38:51;100215.03;;;25.35;nan
43814;BME280;29669;55.706;37.656;2023-05-23T12:41:19;100213.84;;;25.69;nan
43814;BME280;29669;55.706;37.656;2023-05-23T12:43:50;100207.44;;;25.97;nan
43814;BME280;29669;55.706;37.656;2023-05-23T12:46:20;100196.97;;;26.12;nan
43814;BME280;29669;55.706;37.656;2023-05-23T12:48:49;100212.69;;;26.14;nan
43814;BME280;29669;55.706;37.656;2023-05-23T12:51:17;100213.06;;;26.00;nan
43814;BME280;29669;55.706;37.656;2023-05-23T12:53:46;100206.28;;;25.83;nan
43814;BME280;29669;55.706;37.656;2023-05-23T12:56:14;100210.06;;;25.65;nan
43814;BME280;29669;55.706;37.656;2023-05-23T12:58:41;100197.19;;;25.52;nan
43814;BME280;29669;55.706;37.656;2023-05-23T13:01:10;100197.50;;;25.61;nan
43814;BME280;29669;55.706;37.656;2023-05-23T13:03:38;100197.34;;;25.67;nan
43814;BME280;29669;55.706;37.656;2023-05-23T13:06:07;100194.84;;;25.87;nan
43814;BME280;29669;55.706;37.656;2023-05-23T13:08:36;100191.19;;;26.20;nan
43814;BME280;29669;55.706;37.656;2023-05-23T13:23:22;100185.38;;;28.14;nan
43814;BME280;29669;55.706;37.656;2023-05-23T13:25:52;100190.69;;;28.59;nan
43814;BME280;29669;55.706;37.656;2023-05-23T13:28:21;100186.63;;;28.82;nan
43814;BME280;29669;55.706;37.656;2023-05-23T13:30:50;100188.78;;;28.79;nan
43814;BME280;29669;55.706;37.656;2023-05-23T13:33:18;100194.69;;;28.56;nan
43814;BME280;29669;55.706;37.656;2023-05-23T13:35:46;100194.69;;;28.26;nan
43814;BME280;29669;55.706;37.656;2023-05-23T13:38:19;100196.53;;;27.90;nan
43814;BME280;29669;55.706;37.656;2023-05-23T13:40:48;100197.03;;;27.67;nan
43814;BME280;29669;55.706;37.656;2023-05-23T13:43:21;100194.06;;;27.49;nan
43814;BME280;29669;55.706;37.656;2023-05-23T13:45:49;100195.88;;;27.33;nan